createdAt,value
2022-12-29T00:01:29.301Z,97799.16
2022-12-29T00:03:55.789Z,97797.25
2022-12-29T00:06:22.305Z,97799.84
2022-12-29T00:08:48.767Z,97800.97
2022-12-29T00:11:22.831Z,97807.06
2022-12-29T00:14:08.661Z,97806.28
2022-12-29T00:16:36.278Z,97797.72
2022-12-29T00:19:03.674Z,97793.06
2022-12-29T00:21:48.551Z,97804.25
2022-12-29T00:24:28.636Z,97801.38
2022-12-29T00:27:23.033Z,97806.59
2022-12-29T00:30:08.955Z,97800.47
2022-12-29T00:32:54.435Z,97798.38
2022-12-29T00:35:24.488Z,97797.72
2022-12-29T00:38:09.944Z,97795.63
2022-12-29T00:40:55.140Z,97800.59
2022-12-29T00:43:40.323Z,97786.38
2022-12-29T00:46:06.846Z,97785.59
2022-12-29T00:48:52.397Z,97782.47
2022-12-29T00:51:18.872Z,97777.38
2022-12-29T00:53:45.304Z,97780.00
2022-12-29T00:56:11.760Z,97780.81
2022-12-29T00:58:38.250Z,97772.81
2022-12-29T01:01:06.568Z,97788.44
2022-12-29T01:03:34.553Z,97791.63
2022-12-29T01:06:01.527Z,97780.94
2022-12-29T01:08:28.554Z,97776.88
2022-12-29T01:11:05.572Z,97783.78
2022-12-29T01:13:32.238Z,97777.75
2022-12-29T01:15:59.137Z,97782.47
2022-12-29T01:18:26.627Z,97790.41
2022-12-29T01:20:59.082Z,97787.75
2022-12-29T01:23:25.507Z,97789.88
2022-12-29T01:25:52.051Z,97786.91
2022-12-29T01:28:23.953Z,97795.09
2022-12-29T01:30:52.329Z,97791.94
2022-12-29T01:33:18.862Z,97794.25
2022-12-29T01:35:45.797Z,97798.59
2022-12-29T01:38:12.407Z,97790.59
2022-12-29T01:40:44.187Z,97793.72
2022-12-29T01:43:11.774Z,97796.59
2022-12-29T01:45:38.544Z,97788.19
2022-12-29T01:48:05.934Z,97786.53
2022-12-29T01:50:51.860Z,97777.50
2022-12-29T01:53:21.904Z,97775.16
2022-12-29T01:55:54.618Z,97778.66
2022-12-29T01:58:23.704Z,97770.81
2022-12-29T02:00:50.323Z,97760.41
2022-12-29T02:03:18.388Z,97754.84
2022-12-29T02:05:57.420Z,97748.44
2022-12-29T02:08:25.810Z,97754.50
2022-12-29T02:10:52.421Z,97746.94
2022-12-29T02:13:24.600Z,97741.47
2022-12-29T02:15:54.192Z,97750.88
2022-12-29T02:18:29.045Z,97745.19
2022-12-29T02:21:13.983Z,97744.16
2022-12-29T02:23:47.849Z,97732.59
2022-12-29T02:26:29.015Z,97732.09
2022-12-29T02:29:14.372Z,97734.59
2022-12-29T02:31:44.081Z,97721.56
2022-12-29T02:34:26.186Z,97729.03
2022-12-29T02:36:55.466Z,97734.00
2022-12-29T02:39:32.044Z,97732.38
2022-12-29T02:42:11.892Z,97723.44
2022-12-29T02:44:41.191Z,97723.84
2022-12-29T02:47:14.707Z,97726.22
2022-12-29T02:49:48.066Z,97717.84
2022-12-29T02:52:17.565Z,97718.00
2022-12-29T02:54:44.249Z,97721.88
2022-12-29T02:57:32.552Z,97722.28
2022-12-29T03:00:04.974Z,97718.75
2022-12-29T03:02:32.881Z,97718.22
2022-12-29T03:05:08.535Z,97724.03
2022-12-29T03:07:48.131Z,97727.47
2022-12-29T03:10:17.676Z,97720.09
2022-12-29T03:13:15.926Z,97728.88
2022-12-29T03:16:00.798Z,97714.88
2022-12-29T03:18:34.463Z,97712.88
2022-12-29T03:21:04.573Z,97710.06
2022-12-29T03:23:32.325Z,97709.38
2022-12-29T03:26:02.822Z,97702.75
2022-12-29T03:28:36.053Z,97712.38
2022-12-29T03:31:04.487Z,97712.16
2022-12-29T03:33:32.891Z,97715.47
2022-12-29T03:36:05.943Z,97704.94
2022-12-29T03:38:36.564Z,97702.81
2022-12-29T03:41:06.176Z,97704.66
2022-12-29T03:43:34.325Z,97709.94
2022-12-29T03:46:01.934Z,97704.56
2022-12-29T03:48:28.675Z,97700.59
2022-12-29T03:50:56.307Z,97706.63
2022-12-29T03:53:23.463Z,97720.56
2022-12-29T03:55:50.407Z,97721.22
2022-12-29T03:58:17.158Z,97713.31
2022-12-29T04:00:55.636Z,97723.59
2022-12-29T04:03:22.954Z,97722.16
2022-12-29T04:05:50.626Z,97712.66
2022-12-29T04:08:17.768Z,97715.59
2022-12-29T04:10:44.273Z,97717.47
2022-12-29T04:13:12.756Z,97716.03
2022-12-29T04:15:39.399Z,97724.81
2022-12-29T04:18:05.922Z,97716.59
2022-12-29T04:20:52.631Z,97715.03
2022-12-29T04:23:19.359Z,97721.81
2022-12-29T04:25:47.682Z,97704.00
2022-12-29T04:28:15.586Z,97709.94
2022-12-29T04:30:42.207Z,97709.19
2022-12-29T04:33:23.970Z,97695.59
2022-12-29T04:35:50.473Z,97699.47
2022-12-29T04:38:17.471Z,97694.97
2022-12-29T04:40:47.126Z,97702.69
2022-12-29T04:43:15.255Z,97712.00
2022-12-29T04:46:00.758Z,97711.38
2022-12-29T04:48:33.007Z,97710.28
2022-12-29T04:51:19.801Z,97708.53
2022-12-29T04:53:46.680Z,97707.09
2022-12-29T04:56:13.161Z,97715.53
2022-12-29T04:58:40.051Z,97707.78
2022-12-29T05:01:06.634Z,97700.69
2022-12-29T05:03:34.455Z,97704.06
2022-12-29T05:06:00.981Z,97705.28
2022-12-29T05:08:28.546Z,97694.38
2022-12-29T05:10:57.635Z,97705.47
2022-12-29T05:13:24.133Z,97710.00
2022-12-29T05:15:52.239Z,97716.38
2022-12-29T05:18:18.887Z,97719.47
2022-12-29T05:20:46.076Z,97716.25
2022-12-29T05:23:12.675Z,97718.66
2022-12-29T05:25:40.618Z,97725.09
2022-12-29T05:28:18.807Z,97723.69
2022-12-29T05:31:11.304Z,97722.78
2022-12-29T05:33:38.100Z,97715.94
2022-12-29T05:36:09.129Z,97722.94
2022-12-29T05:38:38.012Z,97715.59
2022-12-29T05:41:04.853Z,97704.13
2022-12-29T05:43:49.665Z,97717.91
2022-12-29T05:46:30.563Z,97712.53
2022-12-29T05:49:18.997Z,97715.66
2022-12-29T05:52:17.583Z,97711.91
2022-12-29T05:54:45.332Z,97725.09
2022-12-29T05:57:16.003Z,97732.09
2022-12-29T05:59:45.951Z,97726.09
2022-12-29T06:02:12.606Z,97733.53
2022-12-29T06:04:39.475Z,97735.25
2022-12-29T06:07:05.992Z,97739.00
2022-12-29T06:09:40.035Z,97742.84
2022-12-29T06:12:07.467Z,97740.78
2022-12-29T06:14:34.178Z,97744.31
2022-12-29T06:17:01.009Z,97739.25
2022-12-29T06:19:29.056Z,97737.53
2022-12-29T06:21:55.897Z,97742.22
2022-12-29T06:24:22.512Z,97736.63
2022-12-29T06:26:49.061Z,97742.94
2022-12-29T06:29:18.093Z,97744.91
2022-12-29T06:31:46.563Z,97751.47
2022-12-29T06:34:13.571Z,97752.06
2022-12-29T06:36:40.148Z,97751.63
2022-12-29T06:39:06.934Z,97745.38
2022-12-29T06:41:34.515Z,97750.50
2022-12-29T06:44:24.309Z,97755.66
2022-12-29T06:46:58.457Z,97757.06
2022-12-29T06:49:24.990Z,97754.91
2022-12-29T06:51:51.448Z,97760.75
2022-12-29T06:54:17.866Z,97755.66
2022-12-29T06:56:44.323Z,97748.88
2022-12-29T06:59:10.929Z,97765.06
2022-12-29T07:01:37.427Z,97768.03
2022-12-29T07:04:04.365Z,97759.72
2022-12-29T07:06:30.836Z,97760.84
2022-12-29T07:08:58.342Z,97755.44
2022-12-29T07:11:24.762Z,97771.28
2022-12-29T07:13:51.288Z,97766.72
2022-12-29T07:16:17.815Z,97761.09
2022-12-29T07:18:44.397Z,97764.56
2022-12-29T07:21:11.347Z,97759.00
2022-12-29T07:23:37.883Z,97756.69
2022-12-29T07:26:05.664Z,97757.97
2022-12-29T07:28:33.203Z,97753.94
2022-12-29T07:31:00.213Z,97752.94
2022-12-29T07:33:26.826Z,97756.94
2022-12-29T07:35:53.341Z,97766.03
2022-12-29T07:38:19.812Z,97769.47
2022-12-29T07:40:46.349Z,97766.97
2022-12-29T07:43:12.922Z,97766.56
2022-12-29T07:45:47.040Z,97774.41
2022-12-29T07:48:13.991Z,97764.19
2022-12-29T07:50:40.419Z,97767.31
2022-12-29T07:53:06.848Z,97763.22
2022-12-29T07:55:33.300Z,97763.56
2022-12-29T07:57:59.824Z,97763.69
2022-12-29T08:00:26.687Z,97764.44
2022-12-29T08:02:53.266Z,97768.13
2022-12-29T08:05:19.748Z,97771.34
2022-12-29T08:07:46.951Z,97767.63
2022-12-29T08:10:14.081Z,97767.25
2022-12-29T08:12:41.103Z,97755.84
2022-12-29T08:15:09.202Z,97769.47
2022-12-29T08:17:35.682Z,97763.63
2022-12-29T08:20:02.258Z,97767.38
2022-12-29T08:22:28.803Z,97767.78
2022-12-29T08:24:55.210Z,97761.66
2022-12-29T08:27:21.699Z,97770.00
2022-12-29T08:29:48.221Z,97758.41
2022-12-29T08:32:14.643Z,97762.09
2022-12-29T08:34:41.138Z,97771.66
2022-12-29T08:37:07.577Z,97766.97
2022-12-29T08:39:34.774Z,97765.63
2022-12-29T08:42:01.211Z,97765.56
2022-12-29T08:44:27.709Z,97761.03
2022-12-29T08:46:54.287Z,97765.56
2022-12-29T08:49:20.756Z,97765.72
2022-12-29T08:51:47.247Z,97760.34
2022-12-29T08:54:13.750Z,97760.41
2022-12-29T08:56:40.289Z,97768.75
2022-12-29T08:59:06.977Z,97767.00
2022-12-29T09:01:36.294Z,97775.78
2022-12-29T09:04:14.877Z,97780.97
2022-12-29T09:06:42.396Z,97783.09
2022-12-29T09:09:08.947Z,97773.63
2022-12-29T09:11:35.546Z,97774.19
2022-12-29T09:14:01.984Z,97771.19
2022-12-29T09:16:28.515Z,97776.09
2022-12-29T09:18:55.121Z,97770.81
2022-12-29T09:21:21.944Z,97767.19
2022-12-29T09:23:48.757Z,97763.78
2022-12-29T09:26:15.248Z,97762.81
2022-12-29T09:28:42.450Z,97766.69
2022-12-29T09:31:08.921Z,97763.41
2022-12-29T09:33:35.496Z,97760.41
2022-12-29T09:36:02.441Z,97759.19
2022-12-29T09:38:29.186Z,97753.00
2022-12-29T09:40:57.097Z,97744.22
2022-12-29T09:43:42.267Z,97752.31
2022-12-29T09:46:41.238Z,97741.56
2022-12-29T09:49:17.148Z,97747.47
2022-12-29T09:51:46.260Z,97742.41
2022-12-29T09:54:30.847Z,97739.19
2022-12-29T09:56:57.327Z,97735.38
2022-12-29T09:59:43.592Z,97723.81
2022-12-29T10:02:22.840Z,97722.66
2022-12-29T10:04:49.559Z,97717.72
2022-12-29T10:07:31.403Z,97715.47
2022-12-29T10:10:06.797Z,97719.03
2022-12-29T10:12:45.446Z,97704.44
2022-12-29T10:15:32.486Z,97705.47
2022-12-29T10:18:05.982Z,97706.72
2022-12-29T10:20:34.430Z,97704.41
2022-12-29T10:23:09.964Z,97702.38
2022-12-29T10:25:38.942Z,97700.34
2022-12-29T10:28:10.594Z,97693.16
2022-12-29T10:30:37.235Z,97687.72
2022-12-29T10:33:05.984Z,97689.41
2022-12-29T10:35:36.877Z,97696.22
2022-12-29T10:38:06.042Z,97699.88
2022-12-29T10:40:50.104Z,97684.69
2022-12-29T10:43:27.501Z,97691.28
2022-12-29T10:46:00.336Z,97685.72
2022-12-29T10:48:31.943Z,97690.50
2022-12-29T10:51:02.126Z,97683.09
2022-12-29T10:53:35.625Z,97679.25
2022-12-29T10:56:02.997Z,97688.47
2022-12-29T10:58:30.286Z,97683.38
2022-12-29T11:00:57.030Z,97684.03
2022-12-29T11:03:35.700Z,97677.13
2022-12-29T11:06:07.913Z,97672.34
2022-12-29T11:08:36.341Z,97669.19
2022-12-29T11:11:04.396Z,97671.50
2022-12-29T11:13:38.364Z,97669.78
2022-12-29T11:16:05.837Z,97659.63
2022-12-29T11:18:37.979Z,97661.72
2022-12-29T11:21:24.229Z,97652.81
2022-12-29T11:23:58.549Z,97654.84
2022-12-29T11:26:30.208Z,97654.66
2022-12-29T11:29:09.197Z,97654.03
2022-12-29T11:31:41.792Z,97654.84
2022-12-29T11:34:08.902Z,97654.63
2022-12-29T11:36:36.747Z,97649.56
2022-12-29T11:39:08.985Z,97650.94
2022-12-29T11:41:40.299Z,97656.94
2022-12-29T11:44:07.082Z,97653.41
2022-12-29T11:46:34.884Z,97643.84
2022-12-29T11:49:02.487Z,97646.25
2022-12-29T11:51:31.478Z,97652.78
2022-12-29T11:53:59.261Z,97647.78
2022-12-29T11:56:41.327Z,97641.00
2022-12-29T11:59:26.843Z,97643.53
2022-12-29T12:01:53.901Z,97636.59
2022-12-29T12:04:22.695Z,97639.81
2022-12-29T12:06:54.639Z,97636.38
2022-12-29T12:09:26.041Z,97633.38
2022-12-29T12:11:54.821Z,97633.16
2022-12-29T12:14:26.183Z,97632.00
2022-12-29T12:17:15.574Z,97625.59
2022-12-29T12:19:58.011Z,97624.63
2022-12-29T12:22:39.286Z,97624.88
2022-12-29T12:25:13.559Z,97620.16
2022-12-29T12:27:44.900Z,97623.72
2022-12-29T12:30:14.354Z,97620.16
2022-12-29T12:32:45.059Z,97608.69
2022-12-29T12:35:26.980Z,97614.31
2022-12-29T12:37:56.481Z,97607.69
2022-12-29T12:40:22.936Z,97613.06
2022-12-29T12:43:22.255Z,97603.09
2022-12-29T12:46:01.017Z,97598.41
2022-12-29T12:48:46.187Z,97605.63
2022-12-29T12:51:18.616Z,97604.53
2022-12-29T12:53:51.787Z,97608.59
2022-12-29T12:56:37.012Z,97609.03
2022-12-29T12:59:24.827Z,97611.34
2022-12-29T13:01:57.038Z,97604.88
2022-12-29T13:04:35.197Z,97608.53
2022-12-29T13:07:07.761Z,97606.41
2022-12-29T13:09:48.907Z,97601.28
2022-12-29T13:12:27.286Z,97605.59
2022-12-29T13:15:13.306Z,97609.34
2022-12-29T13:17:42.916Z,97606.28
2022-12-29T13:20:34.005Z,97599.63
2022-12-29T13:23:09.051Z,97606.31
2022-12-29T13:25:41.599Z,97604.75
2022-12-29T13:28:19.086Z,97603.97
2022-12-29T13:30:55.729Z,97603.28
2022-12-29T13:33:33.961Z,97598.34
2022-12-29T13:36:07.015Z,97606.84
2022-12-29T13:38:39.225Z,97606.72
2022-12-29T13:41:09.011Z,97608.22
2022-12-29T13:43:37.582Z,97603.13
2022-12-29T13:46:09.029Z,97607.97
2022-12-29T13:48:38.237Z,97598.13
2022-12-29T13:51:05.983Z,97602.56
2022-12-29T13:53:51.056Z,97599.88
2022-12-29T13:56:36.416Z,97604.38
2022-12-29T13:59:21.702Z,97606.84
2022-12-29T14:01:48.243Z,97612.72
2022-12-29T14:04:16.201Z,97608.56
2022-12-29T14:06:45.016Z,97606.03
2022-12-29T14:09:35.146Z,97605.22
2022-12-29T14:12:02.050Z,97602.78
2022-12-29T14:14:32.682Z,97604.72
2022-12-29T14:17:15.264Z,97606.44
2022-12-29T14:19:44.602Z,97607.41
2022-12-29T14:22:12.242Z,97609.97
2022-12-29T14:24:40.506Z,97606.88
2022-12-29T14:27:16.069Z,97611.38
2022-12-29T14:29:42.503Z,97609.19
2022-12-29T14:32:27.399Z,97611.81
2022-12-29T14:34:57.799Z,97609.75
2022-12-29T14:37:37.252Z,97616.88
2022-12-29T14:40:24.233Z,97615.28
2022-12-29T14:42:52.122Z,97616.13
2022-12-29T14:45:19.639Z,97612.84
2022-12-29T14:47:47.252Z,97623.81
2022-12-29T14:50:26.043Z,97609.19
2022-12-29T14:53:02.917Z,97622.38
2022-12-29T14:55:43.074Z,97618.63
2022-12-29T14:58:21.291Z,97609.97
2022-12-29T15:00:48.409Z,97610.81
2022-12-29T15:03:20.838Z,97628.69
2022-12-29T15:05:50.141Z,97625.28
2022-12-29T15:08:21.947Z,97625.03
2022-12-29T15:10:56.367Z,97623.84
2022-12-29T15:13:24.480Z,97626.13
2022-12-29T15:15:50.950Z,97628.91
2022-12-29T15:18:23.933Z,97619.81
2022-12-29T15:21:00.765Z,97635.84
2022-12-29T15:23:27.584Z,97629.91
2022-12-29T15:25:59.428Z,97634.41
2022-12-29T15:28:26.811Z,97639.25
2022-12-29T15:30:53.279Z,97637.91
2022-12-29T15:33:20.410Z,97640.09
2022-12-29T15:35:50.863Z,97654.88
2022-12-29T15:38:26.227Z,97643.94
2022-12-29T15:41:29.363Z,97643.25
2022-12-29T15:44:11.660Z,97642.00
2022-12-29T15:46:38.314Z,97636.94
2022-12-29T15:49:14.847Z,97626.13
2022-12-29T15:51:41.491Z,97640.47
2022-12-29T15:54:16.256Z,97627.81
2022-12-29T15:56:42.992Z,97637.69
2022-12-29T15:59:23.884Z,97631.34
2022-12-29T16:01:51.060Z,97638.84
2022-12-29T16:04:17.976Z,97637.88
2022-12-29T16:06:58.569Z,97636.06
2022-12-29T16:09:32.590Z,97637.31
2022-12-29T16:12:16.448Z,97639.69
2022-12-29T16:15:02.816Z,97645.31
2022-12-29T16:17:30.548Z,97639.53
2022-12-29T16:20:02.664Z,97641.28
2022-12-29T16:22:32.058Z,97645.06
2022-12-29T16:25:04.381Z,97646.25
2022-12-29T16:27:43.952Z,97650.38
2022-12-29T16:30:26.432Z,97661.28
2022-12-29T16:33:00.304Z,97653.69
2022-12-29T16:35:28.005Z,97645.41
2022-12-29T16:38:13.962Z,97652.69
2022-12-29T16:40:57.023Z,97647.03
2022-12-29T16:43:27.556Z,97653.56
2022-12-29T16:45:54.344Z,97652.09
2022-12-29T16:48:31.660Z,97658.25
2022-12-29T16:51:14.189Z,97650.41
2022-12-29T16:53:41.944Z,97652.13
2022-12-29T16:56:28.714Z,97653.59
2022-12-29T16:59:07.266Z,97648.47
2022-12-29T17:01:37.219Z,97657.19
2022-12-29T17:04:07.796Z,97658.50
2022-12-29T17:06:34.434Z,97648.16
2022-12-29T17:09:00.978Z,97648.47
2022-12-29T17:11:52.460Z,97651.69
2022-12-29T17:14:31.154Z,97648.16
2022-12-29T17:16:57.720Z,97639.34
2022-12-29T17:19:27.780Z,97643.38
2022-12-29T17:21:54.249Z,97639.97
2022-12-29T17:24:21.146Z,97636.88
2022-12-29T17:26:52.421Z,97637.53
2022-12-29T17:29:25.854Z,97641.16
2022-12-29T17:31:54.312Z,97641.69
2022-12-29T17:34:20.936Z,97646.56
2022-12-29T17:36:47.445Z,97636.47
2022-12-29T17:39:13.885Z,97632.53
2022-12-29T17:41:40.438Z,97630.28
2022-12-29T17:44:07.331Z,97628.91
2022-12-29T17:46:35.036Z,97629.44
2022-12-29T17:49:01.644Z,97633.38
2022-12-29T17:51:28.365Z,97641.47
2022-12-29T17:53:54.976Z,97638.22
2022-12-29T17:56:21.415Z,97636.09
2022-12-29T17:58:48.671Z,97635.72
2022-12-29T18:01:15.469Z,97633.78
2022-12-29T18:03:42.094Z,97636.75
2022-12-29T18:06:12.203Z,97640.59
2022-12-29T18:08:39.673Z,97635.72
2022-12-29T18:11:15.241Z,97639.69
2022-12-29T18:13:46.343Z,97637.78
2022-12-29T18:16:14.248Z,97638.47
2022-12-29T18:18:40.805Z,97643.63
2022-12-29T18:21:11.327Z,97643.22
2022-12-29T18:23:39.930Z,97645.72
2022-12-29T18:26:28.332Z,97653.00
2022-12-29T18:28:55.635Z,97655.06
2022-12-29T18:31:23.749Z,97640.81
2022-12-29T18:33:51.266Z,97644.09
2022-12-29T18:36:18.261Z,97647.78
2022-12-29T18:38:45.127Z,97646.28
2022-12-29T18:41:19.323Z,97648.44
2022-12-29T18:43:46.264Z,97655.06
2022-12-29T18:46:18.765Z,97640.38
2022-12-29T18:48:49.915Z,97642.06
2022-12-29T18:51:17.668Z,97636.28
2022-12-29T18:53:44.776Z,97637.59
2022-12-29T18:56:11.557Z,97630.59
2022-12-29T18:58:38.470Z,97632.28
2022-12-29T19:01:05.578Z,97618.88
2022-12-29T19:03:32.671Z,97623.06
2022-12-29T19:06:00.160Z,97626.78
2022-12-29T19:08:26.821Z,97635.91
2022-12-29T19:10:53.265Z,97626.78
2022-12-29T19:13:23.527Z,97637.88
2022-12-29T19:15:50.030Z,97620.81
2022-12-29T19:21:05.534Z,97627.06
2022-12-29T19:23:31.976Z,97629.38
2022-12-29T19:25:58.615Z,97632.97
2022-12-29T19:28:26.999Z,97617.88
2022-12-29T19:30:57.081Z,97622.00
2022-12-29T19:33:24.100Z,97637.31
2022-12-29T19:35:51.416Z,97629.53
2022-12-29T19:38:17.983Z,97622.16
2022-12-29T19:40:45.626Z,97629.44
2022-12-29T19:43:12.698Z,97625.03
2022-12-29T19:45:40.554Z,97626.94
2022-12-29T19:48:18.966Z,97633.50
2022-12-29T19:50:45.636Z,97616.34
2022-12-29T19:53:12.317Z,97619.06
2022-12-29T19:55:43.009Z,97619.06
2022-12-29T19:58:09.565Z,97605.06
2022-12-29T20:00:38.004Z,97597.69
2022-12-29T20:03:04.695Z,97609.22
2022-12-29T20:05:31.287Z,97613.84
2022-12-29T20:07:57.719Z,97601.72
2022-12-29T20:10:24.396Z,97611.41
2022-12-29T20:12:50.881Z,97610.09
2022-12-29T20:15:17.590Z,97610.44
2022-12-29T20:18:14.804Z,97616.88
2022-12-29T20:20:33.157Z,97618.78
2022-12-29T20:22:59.573Z,97624.88
2022-12-29T20:28:12.971Z,97632.63
2022-12-29T20:30:39.546Z,97629.41
2022-12-29T20:33:08.525Z,97630.53
2022-12-29T20:35:35.598Z,97632.53
2022-12-29T20:38:02.075Z,97619.19
2022-12-29T20:40:28.539Z,97628.25
2022-12-29T20:42:54.990Z,97629.94
2022-12-29T20:45:21.471Z,97618.22
2022-12-29T20:47:47.973Z,97613.13
2022-12-29T20:50:15.128Z,97603.63
2022-12-29T20:52:41.580Z,97615.94
2022-12-29T20:55:08.182Z,97606.66
2022-12-29T20:57:49.927Z,97606.81
2022-12-29T21:00:22.819Z,97595.63
2022-12-29T21:02:49.969Z,97594.19
2022-12-29T21:05:25.274Z,97596.06
2022-12-29T21:07:52.902Z,97586.41
2022-12-29T21:10:19.507Z,97593.97
2022-12-29T21:12:46.112Z,97586.22
2022-12-29T21:15:14.958Z,97573.06
2022-12-29T21:17:42.658Z,97592.06
2022-12-29T21:20:09.428Z,97581.28
2022-12-29T21:22:35.948Z,97576.38
2022-12-29T21:25:02.411Z,97581.13
2022-12-29T21:27:29.162Z,97576.84
2022-12-29T21:29:57.995Z,97562.72
2022-12-29T21:32:24.557Z,97565.78
2022-12-29T21:34:50.987Z,97559.69
2022-12-29T21:37:23.411Z,97551.00
2022-12-29T21:39:50.305Z,97557.03
2022-12-29T21:42:16.845Z,97556.09
2022-12-29T21:45:02.034Z,97551.97
2022-12-29T21:47:48.480Z,97543.72
2022-12-29T21:50:15.003Z,97539.13
2022-12-29T21:52:41.564Z,97545.75
2022-12-29T21:55:09.080Z,97544.50
2022-12-29T21:57:55.367Z,97548.66
2022-12-29T22:00:40.580Z,97541.84
2022-12-29T22:03:25.993Z,97549.63
2022-12-29T22:06:11.328Z,97529.50
2022-12-29T22:08:57.058Z,97543.38
2022-12-29T22:11:42.447Z,97551.25
2022-12-29T22:14:09.012Z,97545.00
2022-12-29T22:16:35.484Z,97550.97
2022-12-29T22:19:02.223Z,97553.03
2022-12-29T22:21:28.689Z,97550.00
2022-12-29T22:23:55.153Z,97549.97
2022-12-29T22:26:21.673Z,97548.03
2022-12-29T22:28:48.361Z,97544.16
2022-12-29T22:31:27.733Z,97550.97
2022-12-29T22:33:58.663Z,97552.31
2022-12-29T22:36:25.214Z,97564.16
2022-12-29T22:38:51.806Z,97577.31
2022-12-29T22:41:18.314Z,97576.47
2022-12-29T22:43:44.872Z,97573.31
2022-12-29T22:46:11.465Z,97582.44
2022-12-29T22:48:38.185Z,97584.13
2022-12-29T22:51:04.839Z,97580.53
2022-12-29T22:53:31.306Z,97577.91
2022-12-29T22:56:05.595Z,97573.50
2022-12-29T22:58:32.132Z,97571.41
2022-12-29T23:00:58.777Z,97568.50
2022-12-29T23:03:25.405Z,97560.31
2022-12-29T23:05:55.884Z,97562.53
2022-12-29T23:08:22.321Z,97565.31
2022-12-29T23:10:48.742Z,97558.94
2022-12-29T23:13:15.241Z,97559.91
2022-12-29T23:15:41.750Z,97540.56
2022-12-29T23:18:08.379Z,97539.75
2022-12-29T23:20:34.859Z,97540.00
2022-12-29T23:23:01.418Z,97543.63
2022-12-29T23:25:27.904Z,97545.59
2022-12-29T23:27:54.366Z,97547.84
2022-12-29T23:30:20.806Z,97541.13
2022-12-29T23:32:47.207Z,97543.22
2022-12-29T23:35:13.747Z,97539.59
2022-12-29T23:37:40.187Z,97537.34
2022-12-29T23:40:07.073Z,97531.38
2022-12-29T23:42:33.539Z,97524.00
2022-12-29T23:45:00.022Z,97531.06
2022-12-29T23:47:26.466Z,97539.97
2022-12-29T23:49:52.933Z,97524.97
2022-12-29T23:52:19.374Z,97521.97
2022-12-29T23:54:46.479Z,97527.13
2022-12-29T23:57:12.955Z,97531.13
2022-12-29T23:59:39.437Z,97532.81
